createdAt,value
2022-08-11T00:02:06.996Z,2.45
2022-08-11T00:07:18.819Z,2.88
2022-08-11T00:12:21.878Z,3.20
2022-08-11T00:17:29.433Z,2.80
2022-08-11T00:22:33.618Z,2.90
2022-08-11T00:27:39.380Z,3.00
2022-08-11T00:32:46.027Z,2.80
2022-08-11T00:37:50.740Z,3.30
2022-08-11T00:43:02.923Z,3.10
2022-08-11T00:48:21.122Z,3.30
2022-08-11T00:53:36.284Z,3.47
2022-08-11T00:59:34.196Z,3.78
2022-08-11T01:05:09.892Z,3.60
2022-08-11T01:10:44.375Z,3.60
2022-08-11T01:16:14.571Z,3.70
2022-08-11T01:21:46.879Z,3.60
2022-08-11T01:27:18.894Z,3.30
2022-08-11T01:33:06.475Z,3.78
2022-08-11T01:38:47.483Z,3.65
2022-08-11T01:44:38.711Z,4.23
2022-08-11T01:50:08.855Z,4.20
2022-08-11T01:55:24.118Z,3.90
2022-08-11T02:00:31.590Z,4.10
2022-08-11T02:06:00.868Z,4.13
2022-08-11T02:11:35.457Z,3.92
2022-08-11T02:16:54.302Z,4.20
2022-08-11T02:22:22.194Z,3.93
2022-08-11T02:27:36.093Z,3.75
2022-08-11T02:33:06.973Z,4.10
2022-08-11T02:38:19.278Z,4.40
2022-08-11T02:43:30.431Z,3.70
2022-08-11T02:49:03.937Z,3.78
2022-08-11T02:54:18.189Z,3.50
2022-08-11T02:59:46.999Z,3.38
2022-08-11T03:05:02.329Z,3.33
2022-08-11T03:10:12.446Z,4.27
2022-08-11T03:15:41.293Z,4.50
2022-08-11T03:20:54.839Z,4.40
2022-08-11T03:26:05.231Z,3.70
2022-08-11T03:31:29.505Z,3.77
2022-08-11T03:37:17.118Z,4.18
2022-08-11T03:42:31.040Z,4.00
2022-08-11T03:48:01.588Z,4.07
2022-08-11T03:53:15.586Z,4.65
2022-08-11T03:58:41.723Z,4.43
2022-08-11T04:04:10.325Z,4.10
2022-08-11T04:09:55.723Z,3.80
2022-08-11T04:15:32.361Z,3.88
2022-08-11T04:20:55.935Z,3.53
2022-08-11T04:26:48.414Z,3.70
2022-08-11T04:32:13.863Z,3.90
2022-08-11T04:37:57.350Z,4.18
2022-08-11T04:44:05.840Z,3.90
2022-08-11T04:49:50.484Z,4.18
2022-08-11T04:55:28.987Z,4.45
2022-08-11T05:00:56.756Z,4.70
2022-08-11T05:06:58.299Z,4.87
2022-08-11T05:12:13.876Z,4.47
2022-08-11T05:17:40.914Z,5.05
2022-08-11T05:23:07.054Z,4.50
2022-08-11T05:28:33.307Z,3.92
2022-08-11T05:34:00.981Z,3.70
2022-08-11T05:39:33.583Z,3.60
2022-08-11T05:44:59.138Z,3.70
2022-08-11T05:50:19.483Z,3.78
2022-08-11T05:56:02.876Z,3.57
2022-08-11T06:01:08.996Z,3.60
2022-08-11T06:06:12.120Z,3.78
2022-08-11T06:11:17.946Z,3.10
2022-08-11T06:16:28.068Z,2.57
2022-08-11T06:21:36.075Z,2.20
2022-08-11T06:26:55.180Z,2.35
2022-08-11T06:32:05.444Z,2.30
2022-08-11T06:37:22.957Z,2.10
2022-08-11T06:42:51.048Z,2.00
2022-08-11T06:48:00.799Z,2.37
2022-08-11T06:53:06.974Z,2.40
2022-08-11T06:58:32.020Z,2.20
2022-08-11T07:03:44.130Z,2.38
2022-08-11T07:10:00.136Z,2.27
2022-08-11T07:15:24.550Z,2.15
2022-08-11T07:21:06.638Z,2.20
2022-08-11T07:26:47.104Z,2.20
2022-08-11T07:31:53.945Z,2.20
2022-08-11T07:37:00.888Z,3.10
2022-08-11T07:42:08.177Z,2.37
2022-08-11T07:47:29.609Z,2.30
2022-08-11T07:52:38.273Z,2.40
2022-08-11T07:58:15.613Z,2.40
2022-08-11T08:03:53.859Z,1.70
2022-08-11T08:09:17.080Z,1.73
2022-08-11T08:14:37.991Z,2.00
2022-08-11T08:19:44.935Z,1.77
2022-08-11T08:24:50.072Z,1.58
2022-08-11T08:30:10.910Z,1.60
2022-08-11T08:35:14.004Z,1.80
2022-08-11T08:40:19.171Z,1.80
2022-08-11T08:45:23.233Z,1.70
2022-08-11T08:50:50.437Z,1.60
2022-08-11T08:55:59.325Z,1.90
2022-08-11T09:01:03.075Z,1.80
2022-08-11T09:06:06.526Z,1.90
2022-08-11T09:11:29.642Z,2.00
2022-08-11T09:16:32.717Z,1.80
2022-08-11T09:21:46.323Z,1.90
2022-08-11T09:27:03.893Z,1.60
2022-08-11T09:32:08.889Z,1.63
2022-08-11T09:37:55.270Z,1.67
2022-08-11T09:43:12.313Z,1.58
2022-08-11T09:48:15.261Z,1.60
2022-08-11T09:53:41.064Z,1.90
2022-08-11T09:58:45.465Z,1.45
2022-08-11T10:03:48.910Z,1.90
2022-08-11T10:08:53.996Z,1.55
2022-08-11T10:14:33.320Z,1.50
2022-08-11T10:19:39.004Z,1.53
2022-08-11T10:25:02.597Z,1.90
2022-08-11T10:30:30.964Z,1.65
2022-08-11T10:35:34.203Z,1.60
2022-08-11T10:40:38.927Z,1.60
2022-08-11T10:46:03.994Z,1.60
2022-08-11T10:51:14.616Z,1.60
2022-08-11T10:56:36.852Z,1.70
2022-08-11T11:01:44.048Z,1.60
2022-08-11T11:06:57.615Z,1.30
2022-08-11T11:12:29.513Z,1.53
2022-08-11T11:17:57.721Z,1.60
2022-08-11T11:23:05.758Z,1.70
2022-08-11T11:28:39.354Z,1.60
2022-08-11T11:34:06.979Z,1.47
2022-08-11T11:39:19.307Z,1.45
2022-08-11T11:44:23.866Z,1.60
2022-08-11T11:49:32.433Z,1.63
2022-08-11T11:54:36.759Z,1.60
2022-08-11T11:59:57.505Z,1.50
2022-08-11T12:05:02.781Z,1.60
2022-08-11T12:10:06.643Z,1.70
2022-08-11T12:15:10.826Z,1.90
2022-08-11T12:20:32.162Z,1.60
2022-08-11T12:26:23.281Z,1.50
2022-08-11T12:31:22.153Z,2.00
2022-08-11T12:36:26.733Z,1.70
2022-08-11T12:41:48.714Z,1.50
2022-08-11T12:46:52.392Z,1.70
2022-08-11T12:52:12.970Z,1.60
2022-08-11T12:57:38.902Z,1.60
2022-08-11T13:03:00.306Z,1.50
2022-08-11T13:08:06.600Z,1.70
2022-08-11T13:13:52.346Z,1.50
2022-08-11T13:18:33.001Z,1.40
2022-08-11T13:23:39.118Z,1.60
2022-08-11T13:28:42.165Z,1.50
2022-08-11T13:33:49.742Z,1.43
2022-08-11T13:38:56.397Z,1.50
2022-08-11T13:44:00.105Z,1.60
2022-08-11T13:49:09.083Z,1.90
2022-08-11T13:54:18.827Z,2.00
2022-08-11T13:59:28.171Z,1.70
2022-08-11T14:04:37.662Z,1.70
2022-08-11T14:09:45.976Z,1.80
2022-08-11T14:14:57.505Z,1.60
2022-08-11T14:20:37.896Z,1.83
2022-08-11T14:26:01.197Z,1.87
2022-08-11T14:31:01.519Z,1.60
2022-08-11T14:36:06.570Z,2.85
2022-08-11T14:41:29.503Z,1.60
2022-08-11T14:46:51.544Z,1.77
2022-08-11T14:52:00.997Z,1.83
2022-08-11T14:57:05.653Z,2.42
2022-08-11T15:02:27.328Z,1.60
2022-08-11T15:07:30.684Z,1.70
2022-08-11T15:12:36.657Z,2.30
2022-08-11T15:17:43.027Z,2.30
2022-08-11T15:23:04.079Z,1.90
2022-08-11T15:28:28.487Z,2.10
2022-08-11T15:33:50.364Z,1.90
2022-08-11T15:38:58.246Z,2.07
2022-08-11T15:44:44.554Z,2.40
2022-08-11T15:50:11.422Z,2.28
2022-08-11T15:55:17.295Z,2.37
2022-08-11T16:00:39.145Z,2.20
2022-08-11T16:05:45.931Z,2.25
2022-08-11T16:10:51.173Z,2.20
2022-08-11T16:16:17.183Z,2.03
2022-08-11T16:21:26.223Z,1.85
2022-08-11T16:27:07.470Z,2.57
2022-08-11T16:32:18.119Z,2.90
2022-08-11T16:37:41.758Z,3.28
2022-08-11T16:43:10.683Z,3.13
2022-08-11T16:48:35.006Z,3.20
2022-08-11T16:53:47.364Z,3.10
2022-08-11T16:59:15.268Z,2.90
2022-08-11T17:04:43.486Z,2.30
2022-08-11T17:10:39.572Z,2.30
2022-08-11T17:15:50.834Z,2.13
2022-08-11T17:20:55.934Z,2.13
2022-08-11T17:26:04.170Z,1.90
2022-08-11T17:31:25.698Z,2.10
2022-08-11T17:36:30.092Z,1.95
2022-08-11T17:41:50.302Z,3.30
2022-08-11T17:47:11.999Z,1.90
2022-08-11T17:52:35.538Z,1.88
2022-08-11T17:57:58.484Z,2.30
2022-08-11T18:03:20.326Z,1.85
2022-08-11T18:08:43.476Z,1.80
2022-08-11T18:14:05.349Z,1.80
2022-08-11T18:19:26.869Z,1.70
2022-08-11T18:24:51.969Z,1.50
2022-08-11T18:30:14.626Z,1.60
2022-08-11T18:35:37.747Z,1.60
2022-08-11T18:41:01.631Z,1.50
2022-08-11T18:46:26.150Z,1.48
2022-08-11T18:51:47.547Z,1.50
2022-08-11T18:57:10.244Z,1.40
2022-08-11T19:02:31.693Z,1.40
2022-08-11T19:07:57.439Z,1.63
2022-08-11T19:13:20.213Z,1.40
2022-08-11T19:18:43.070Z,1.30
2022-08-11T19:24:09.015Z,1.38
2022-08-11T19:30:07.957Z,1.57
2022-08-11T19:35:14.852Z,1.48
2022-08-11T19:40:39.287Z,1.60
2022-08-11T19:46:01.575Z,1.50
2022-08-11T19:51:22.980Z,1.50
2022-08-11T19:56:43.860Z,1.33
2022-08-11T20:02:13.480Z,1.50
2022-08-11T20:07:36.138Z,1.73
2022-08-11T20:12:58.309Z,1.60
2022-08-11T20:18:22.045Z,1.50
2022-08-11T20:23:42.894Z,1.40
2022-08-11T20:29:04.340Z,1.50
2022-08-11T20:34:28.442Z,1.60
2022-08-11T20:39:50.692Z,1.53
2022-08-11T20:45:14.358Z,1.63
2022-08-11T20:50:40.148Z,1.55
2022-08-11T20:56:06.787Z,2.00
2022-08-11T21:01:38.759Z,1.70
2022-08-11T21:07:03.911Z,1.95
2022-08-11T21:12:25.374Z,2.08
2022-08-11T21:18:00.712Z,1.90
2022-08-11T21:23:31.119Z,2.03
2022-08-11T21:28:53.522Z,1.90
2022-08-11T21:34:15.442Z,2.00
2022-08-11T21:39:41.109Z,2.10
2022-08-11T21:45:03.258Z,2.40
2022-08-11T21:50:24.721Z,2.40
2022-08-11T21:55:47.692Z,2.30
2022-08-11T22:01:08.361Z,2.30
2022-08-11T22:06:29.432Z,2.40
2022-08-11T22:11:51.059Z,2.40
2022-08-11T22:17:31.199Z,2.42
2022-08-11T22:22:53.706Z,2.20
2022-08-11T22:28:15.770Z,2.40
2022-08-11T22:33:36.715Z,2.45
2022-08-11T22:39:04.735Z,2.72
2022-08-11T22:44:27.035Z,2.60
2022-08-11T22:49:57.592Z,2.80
2022-08-11T22:55:19.911Z,2.42
2022-08-11T23:00:42.483Z,2.90
2022-08-11T23:06:02.873Z,2.60
2022-08-11T23:11:26.137Z,2.45
2022-08-11T23:17:08.625Z,2.90
2022-08-11T23:22:43.822Z,2.97
2022-08-11T23:28:10.976Z,3.10
2022-08-11T23:33:36.113Z,3.00
2022-08-11T23:38:56.601Z,2.83
2022-08-11T23:44:17.512Z,3.03
2022-08-11T23:49:40.139Z,3.58
2022-08-11T23:55:02.120Z,3.05
